Race Results for…
SLO Ultra at Wild Cherry Canyon

September 09, 2017 Results presented by SLO Marathon and timed by SVE Timing
Participants:
1281
Last Updated:
9/21/2017 3:52:58 PM

Results are preliminary for 3 days.

Stats

Overall Results

Tip: Slide the results table left and right to view more.
114 entrants …
50 MILE ULTRA Results
Bib Name City Chip Elapsed Division Div Place Age Age Place Gender Gender Place Pace
118 FRANZ VAN DER GROEN SAN RAFAEL 07:12:04 50 MILE ULTRA 1 33 1 M 1 08:38 min/mile
64 JADD MARTINEZ SAN LUIS OBISPO 08:23:46 50 MILE ULTRA 2 35 2 M 2 10:04 min/mile
56 DANIEL LIST ORCUTT 08:35:00 50 MILE ULTRA 3 37 3 M 3 10:18 min/mile
106 GEORGE TORRES INDA LOS ANGELES 08:35:46 50 MILE ULTRA 4 35 4 M 4 10:18 min/mile
42 ALEX HONOR REDWOOD CITY 08:37:40 50 MILE ULTRA 5 50 1 M 5 10:21 min/mile
77 CHRISTOPHER PAVLAKOVICH ORCUTT 08:59:39 50 MILE ULTRA 6 24 1 M 6 10:47 min/mile
81 MARCUS PENNER SANTA MARIA 09:20:34 50 MILE ULTRA 7 25 2 M 7 11:12 min/mile
69 ERIC MOE ORCUTT 09:21:24 50 MILE ULTRA 8 49 1 M 8 11:13 min/mile
18 SEAN CURRY SALINAS 09:21:44 50 MILE ULTRA 9 49 2 M 9 11:14 min/mile
23 SEAN FINEGAN GRANADA HILLS 09:26:56 50 MILE ULTRA 10 45 3 M 10 11:20 min/mile
109 MICHELE VAN ORNUM FRESNO 09:27:22 50 MILE ULTRA 11 48 1 F 1 11:20 min/mile
7 ERIC BLAIN TULARE 09:40:16 50 MILE ULTRA 12 34 5 M 11 11:36 min/mile
95 LINDA SERENO SALINAS 09:53:49 50 MILE ULTRA 13 57 1 F 2 11:52 min/mile
54 LOGAN LASZCZYK CARLSBAD 09:57:53 50 MILE ULTRA 14 26 3 M 12 11:57 min/mile
41 RYAN HOGAN OXNARD 10:03:57 50 MILE ULTRA 15 38 6 M 13 12:04 min/mile
104 VHUSOMUZI SUKUTA FRESNO 10:17:54 50 MILE ULTRA 16 40 4 M 14 12:21 min/mile
31 BEN GIMLIN VISALIA 10:18:02 50 MILE ULTRA 17 34 7 M 15 12:21 min/mile
29 KEVIN GARNIER LAHAINA 10:21:27 50 MILE ULTRA 18 48 5 M 16 12:25 min/mile
115 ERIC WEEDEN ARROYO GRANDE 10:35:52 50 MILE ULTRA 19 47 6 M 17 12:43 min/mile
14 HAILEY CHIASSON MORRO BAY 10:38:20 50 MILE ULTRA 20 27 1 F 3 12:46 min/mile
116 KEVIN WOLF ATASCADERO 10:55:02 50 MILE ULTRA 21 35 8 M 18 13:06 min/mile
27 JESSE FUNDERBURK SAN DIEGO 10:55:59 50 MILE ULTRA 22 38 9 M 19 13:07 min/mile
112 SAMUEL VONDERHEIDE TEMPLETON 10:59:39 50 MILE ULTRA 23 40 7 M 20 13:11 min/mile
86 ROBERT RHODES REDWOOD CITY 11:00:03 50 MILE ULTRA 24 52 2 M 21 13:12 min/mile
66 ERIC MCNEELY COSTA MESA 11:01:34 50 MILE ULTRA 25 32 10 M 22 13:13 min/mile
108 MIKE TURNER MEADOW VISTA 11:11:08 50 MILE ULTRA 26 45 8 M 23 13:25 min/mile
46 CORY JONES ARROYO GRANDE 11:14:17 50 MILE ULTRA 27 24 4 M 24 13:29 min/mile
17 LISA CROUCH CLOVIS 11:16:04 50 MILE ULTRA 28 49 2 F 4 13:31 min/mile
87 STEVEN RILEY SAN JOSE 11:18:59 50 MILE ULTRA 29 42 9 M 25 13:34 min/mile
49 MARGAE KNOX SAN LUIS OBISPO 11:19:49 50 MILE ULTRA 30 28 2 F 5 13:35 min/mile
80 ERIC PENCE EAGLE 11:36:50 50 MILE ULTRA 31 51 3 M 26 13:56 min/mile
12 MATT CARVER SAN LUIS OBISPO 11:37:14 50 MILE ULTRA 32 37 11 M 27 13:56 min/mile
105 NICHOLAS SUPAT ARROYO GRANDE 11:37:15 50 MILE ULTRA 33 29 5 M 28 13:56 min/mile
96 ALDEN SIMMER MAKAWAO 11:38:46 50 MILE ULTRA 34 22 6 M 29 13:58 min/mile
36 MARK HEMAUER MARTINEZ 11:41:23 50 MILE ULTRA 35 35 12 M 30 14:01 min/mile
38 JOSHUA HICKEY VISALIA 11:41:27 50 MILE ULTRA 36 43 10 M 31 14:01 min/mile
39 RYAN HIGGINBOTHAM PISMO BEACH 11:43:20 50 MILE ULTRA 37 25 7 M 32 14:04 min/mile
76 MARK PARRETT SALT LAKE CITY 11:59:13 50 MILE ULTRA 38 34 13 M 33 14:23 min/mile
103 JENNIFER STRINGHAM SAN FRANCISCO 12:01:05 50 MILE ULTRA 39 35 1 F 6 14:25 min/mile
72 SANDRA NUNEZ ROWLAND HEIGHTS 12:03:20 50 MILE ULTRA 40 45 3 F 7 14:28 min/mile
101 TORSTEN STIEREN LOMPC 12:05:26 50 MILE ULTRA 41 50 4 M 34 14:30 min/mile
99 KEITH SOMMA ARROYO GRANDE 12:14:11 50 MILE ULTRA 42 38 14 M 35 14:41 min/mile
100 KELLI STEWART SEASIDE 12:17:31 50 MILE ULTRA 43 28 3 F 8 14:45 min/mile
25 STEPHANIE FRASER LA CRESCENTA 12:18:04 50 MILE ULTRA 44 28 4 F 9 14:45 min/mile
59 MELVIN LOPEZ SANTA MARIA 12:18:06 50 MILE ULTRA 45 40 11 M 36 14:45 min/mile
71 SARAH NEMETH SANTA MARIA 12:18:48 50 MILE ULTRA 46 33 2 F 10 14:46 min/mile
47 LINDSAY KASOW TEMECULA 12:19:42 50 MILE ULTRA 47 27 5 F 11 14:47 min/mile
110 BRENT VANDERHOOF SAN LUIS OBISPO 12:22:27 50 MILE ULTRA 48 46 12 M 37 14:50 min/mile
68 VICTORIA MITCHELL LONG BEACH 12:24:59 50 MILE ULTRA 49 54 2 F 12 14:53 min/mile
35 DOUGLAS HARVEY PASADENA 12:25:33 50 MILE ULTRA 50 50 5 M 38 14:54 min/mile
114 entrants …

Winners

Tip: Slide the results table left and right to view more.
Overall
Bib Name City Chip Elapsed Division Div Place Age Age Place Gender Gender Place Pace
118 FRANZ VAN DER GROEN SAN RAFAEL 07:12:04 50 MILE ULTRA 1 33 1 M 1 08:38 min/mile
64 JADD MARTINEZ SAN LUIS OBISPO 08:23:46 50 MILE ULTRA 2 35 2 M 2 10:04 min/mile
56 DANIEL LIST ORCUTT 08:35:00 50 MILE ULTRA 3 37 3 M 3 10:18 min/mile
109 MICHELE VAN ORNUM FRESNO 09:27:22 50 MILE ULTRA 11 48 1 F 1 11:20 min/mile
95 LINDA SERENO SALINAS 09:53:49 50 MILE ULTRA 13 57 1 F 2 11:52 min/mile
14 HAILEY CHIASSON MORRO BAY 10:38:20 50 MILE ULTRA 20 27 1 F 3 12:46 min/mile
1 - 19
Bib Name City Chip Elapsed Division Div Place Age Age Place Gender Gender Place Pace
20 - 29
Bib Name City Chip Elapsed Division Div Place Age Age Place Gender Gender Place Pace
77 CHRISTOPHER PAVLAKOVICH ORCUTT 08:59:39 50 MILE ULTRA 6 24 1 M 6 10:47 min/mile
81 MARCUS PENNER SANTA MARIA 09:20:34 50 MILE ULTRA 7 25 2 M 7 11:12 min/mile
54 LOGAN LASZCZYK CARLSBAD 09:57:53 50 MILE ULTRA 14 26 3 M 12 11:57 min/mile
46 CORY JONES ARROYO GRANDE 11:14:17 50 MILE ULTRA 27 24 4 M 24 13:29 min/mile
105 NICHOLAS SUPAT ARROYO GRANDE 11:37:15 50 MILE ULTRA 33 29 5 M 28 13:56 min/mile
14 HAILEY CHIASSON MORRO BAY 10:38:20 50 MILE ULTRA 20 27 1 F 3 12:46 min/mile
49 MARGAE KNOX SAN LUIS OBISPO 11:19:49 50 MILE ULTRA 30 28 2 F 5 13:35 min/mile
100 KELLI STEWART SEASIDE 12:17:31 50 MILE ULTRA 43 28 3 F 8 14:45 min/mile
25 STEPHANIE FRASER LA CRESCENTA 12:18:04 50 MILE ULTRA 44 28 4 F 9 14:45 min/mile
47 LINDSAY KASOW TEMECULA 12:19:42 50 MILE ULTRA 47 27 5 F 11 14:47 min/mile
30 - 39
Bib Name City Chip Elapsed Division Div Place Age Age Place Gender Gender Place Pace
118 FRANZ VAN DER GROEN SAN RAFAEL 07:12:04 50 MILE ULTRA 1 33 1 M 1 08:38 min/mile
64 JADD MARTINEZ SAN LUIS OBISPO 08:23:46 50 MILE ULTRA 2 35 2 M 2 10:04 min/mile
56 DANIEL LIST ORCUTT 08:35:00 50 MILE ULTRA 3 37 3 M 3 10:18 min/mile
106 GEORGE TORRES INDA LOS ANGELES 08:35:46 50 MILE ULTRA 4 35 4 M 4 10:18 min/mile
7 ERIC BLAIN TULARE 09:40:16 50 MILE ULTRA 12 34 5 M 11 11:36 min/mile
103 JENNIFER STRINGHAM SAN FRANCISCO 12:01:05 50 MILE ULTRA 39 35 1 F 6 14:25 min/mile
71 SARAH NEMETH SANTA MARIA 12:18:48 50 MILE ULTRA 46 33 2 F 10 14:46 min/mile
91 TARA SANTOS VANDENBERG AFB 12:32:45 50 MILE ULTRA 52 37 3 F 13 15:03 min/mile
57 KALANI LIVOTI VANDENBERG AFB 13:18:09 50 MILE ULTRA 60 32 4 F 16 15:57 min/mile
40 - 49
Bib Name City Chip Elapsed Division Div Place Age Age Place Gender Gender Place Pace
69 ERIC MOE ORCUTT 09:21:24 50 MILE ULTRA 8 49 1 M 8 11:13 min/mile
18 SEAN CURRY SALINAS 09:21:44 50 MILE ULTRA 9 49 2 M 9 11:14 min/mile
23 SEAN FINEGAN GRANADA HILLS 09:26:56 50 MILE ULTRA 10 45 3 M 10 11:20 min/mile
104 VHUSOMUZI SUKUTA FRESNO 10:17:54 50 MILE ULTRA 16 40 4 M 14 12:21 min/mile
29 KEVIN GARNIER LAHAINA 10:21:27 50 MILE ULTRA 18 48 5 M 16 12:25 min/mile
109 MICHELE VAN ORNUM FRESNO 09:27:22 50 MILE ULTRA 11 48 1 F 1 11:20 min/mile
17 LISA CROUCH CLOVIS 11:16:04 50 MILE ULTRA 28 49 2 F 4 13:31 min/mile
72 SANDRA NUNEZ ROWLAND HEIGHTS 12:03:20 50 MILE ULTRA 40 45 3 F 7 14:28 min/mile
70 KERRY MORRIS SAN LUIS OBISPO 12:37:57 50 MILE ULTRA 54 41 4 F 14 15:09 min/mile
50 - 59
Bib Name City Chip Elapsed Division Div Place Age Age Place Gender Gender Place Pace
42 ALEX HONOR REDWOOD CITY 08:37:40 50 MILE ULTRA 5 50 1 M 5 10:21 min/mile
86 ROBERT RHODES REDWOOD CITY 11:00:03 50 MILE ULTRA 24 52 2 M 21 13:12 min/mile
80 ERIC PENCE EAGLE 11:36:50 50 MILE ULTRA 31 51 3 M 26 13:56 min/mile
101 TORSTEN STIEREN LOMPC 12:05:26 50 MILE ULTRA 41 50 4 M 34 14:30 min/mile
35 DOUGLAS HARVEY PASADENA 12:25:33 50 MILE ULTRA 50 50 5 M 38 14:54 min/mile
95 LINDA SERENO SALINAS 09:53:49 50 MILE ULTRA 13 57 1 F 2 11:52 min/mile
68 VICTORIA MITCHELL LONG BEACH 12:24:59 50 MILE ULTRA 49 54 2 F 12 14:53 min/mile
65 CHRISTINE MATHIESEN ATASCADERO 14:47:28 50 MILE ULTRA 71 50 3 F 17 17:44 min/mile
60 - 69
Bib Name City Chip Elapsed Division Div Place Age Age Place Gender Gender Place Pace
102 MIKE STOVER OCEANO 13:09:10 50 MILE ULTRA 59 61 1 M 44 15:47 min/mile
70 - 99
Bib Name City Chip Elapsed Division Div Place Age Age Place Gender Gender Place Pace

Race Info

Participants:
1281
Last Updated:
9/21/2017 3:52:58 PM

Results are preliminary for 3 days.

Tip: Slide the results table left and right to view more.

Search for Name, Bib, City, State or Team
in the field above… by clicking the icon below…

Race Statistics

50 MILE ULTRA - 76


Male
Total Finishers Avg Pace
58 13:44

Female
Total Finishers Avg Pace
18 14:12

MARATHON - 113


Male
Total Finishers Avg Pace
62 13:06

Female
Total Finishers Avg Pace
51 13:55

HALF MARATHON - 347


Male
Total Finishers Avg Pace
138 12:40

Female
Total Finishers Avg Pace
209 14:25

5 MILE - 237


Male
Total Finishers Avg Pace
75 15:15

Female
Total Finishers Avg Pace
162 17:14

13 MILE MTB - 120


Male
Total Finishers Avg Pace
83 00:00

Female
Total Finishers Avg Pace
37 00:00

28 MILE MTB - 104


Male
Total Finishers Avg Pace
83 00:00

Female
Total Finishers Avg Pace
21 00:00

Have a question or need to make a correction?

Submit a Result Correction